createdAt,value
2023-01-28T00:00:15.178Z,0.00
2023-01-28T00:01:15.265Z,0.00
2023-01-28T00:02:15.212Z,0.00
2023-01-28T00:03:15.231Z,0.00
2023-01-28T00:04:15.268Z,0.00
2023-01-28T00:05:15.651Z,0.00
2023-01-28T00:06:15.292Z,0.00
2023-01-28T00:07:15.303Z,0.00
2023-01-28T00:08:15.314Z,0.00
2023-01-28T00:09:15.333Z,0.00
2023-01-28T00:10:15.350Z,0.00
2023-01-28T00:11:15.367Z,0.00
2023-01-28T00:12:15.384Z,0.00
2023-01-28T00:13:15.398Z,0.00
2023-01-28T00:14:15.416Z,0.00
2023-01-28T00:15:15.767Z,0.00
2023-01-28T00:16:15.529Z,0.00
2023-01-28T00:17:15.479Z,0.00
2023-01-28T00:18:15.483Z,0.00
2023-01-28T00:19:15.505Z,0.00
2023-01-28T00:20:15.515Z,0.00
2023-01-28T00:21:15.544Z,0.00
2023-01-28T00:22:15.550Z,0.00
2023-01-28T00:23:15.565Z,0.00
2023-01-28T00:24:15.628Z,0.00
2023-01-28T00:25:16.059Z,0.00
2023-01-28T00:26:15.620Z,0.00
2023-01-28T00:27:15.639Z,0.00
2023-01-28T00:28:15.648Z,0.00
2023-01-28T00:29:15.669Z,0.00
2023-01-28T00:30:15.684Z,0.00
2023-01-28T00:31:15.708Z,0.00
2023-01-28T00:32:15.715Z,0.00
2023-01-28T00:33:15.735Z,0.00
2023-01-28T00:34:15.749Z,0.00
2023-01-28T00:35:16.188Z,0.00
2023-01-28T00:36:15.787Z,0.00
2023-01-28T00:37:15.794Z,0.00
2023-01-28T00:38:15.822Z,0.00
2023-01-28T00:39:15.859Z,0.00
2023-01-28T00:40:15.862Z,0.00
2023-01-28T00:41:15.891Z,0.00
2023-01-28T00:42:15.886Z,0.00
2023-01-28T00:43:15.910Z,0.00
2023-01-28T00:44:15.919Z,0.00
2023-01-28T00:45:16.310Z,0.00
2023-01-28T00:46:15.989Z,0.00
2023-01-28T00:47:15.971Z,0.00
2023-01-28T00:48:15.991Z,0.00
2023-01-28T00:49:16.003Z,0.00
2023-01-28T00:50:16.023Z,0.00
2023-01-28T00:51:16.037Z,0.00
2023-01-28T00:52:16.055Z,0.00
2023-01-28T00:53:16.071Z,0.00
2023-01-28T00:54:16.096Z,0.00
2023-01-28T00:55:16.423Z,0.00
2023-01-28T00:56:16.122Z,0.00
2023-01-28T00:57:16.139Z,0.00
2023-01-28T00:58:16.156Z,0.00
2023-01-28T00:59:16.173Z,0.00
2023-01-28T01:00:16.198Z,0.00
2023-01-28T01:01:16.258Z,0.00
2023-01-28T01:02:16.270Z,0.00
2023-01-28T01:03:16.254Z,0.00
2023-01-28T01:04:16.261Z,0.00
2023-01-28T01:05:16.653Z,0.00
2023-01-28T01:06:16.310Z,0.00
2023-01-28T01:07:16.317Z,0.00
2023-01-28T01:08:16.341Z,0.00
2023-01-28T01:09:16.342Z,0.00
2023-01-28T01:10:16.356Z,0.00
2023-01-28T01:11:16.374Z,0.00
2023-01-28T01:12:16.388Z,0.00
2023-01-28T01:13:16.406Z,0.00
2023-01-28T01:14:16.422Z,0.00
2023-01-28T01:15:16.724Z,0.00
2023-01-28T01:16:16.457Z,0.00
2023-01-28T01:17:16.484Z,0.00
2023-01-28T01:18:16.492Z,0.00
2023-01-28T01:19:16.505Z,0.00
2023-01-28T01:20:16.521Z,0.00
2023-01-28T01:21:16.540Z,0.00
2023-01-28T01:22:16.564Z,0.00
2023-01-28T01:23:16.579Z,0.00
2023-01-28T01:24:16.685Z,0.00
2023-01-28T01:25:17.149Z,0.00
2023-01-28T01:26:16.623Z,0.00
2023-01-28T01:27:16.640Z,0.00
2023-01-28T01:28:16.656Z,0.00
2023-01-28T01:29:16.684Z,0.00
2023-01-28T01:30:16.689Z,0.00
2023-01-28T01:31:16.708Z,0.00
2023-01-28T01:32:16.723Z,0.00
2023-01-28T01:33:16.741Z,0.00
2023-01-28T01:34:16.756Z,0.00
2023-01-28T01:35:17.068Z,0.00
2023-01-28T01:36:16.797Z,0.00
2023-01-28T01:37:16.809Z,0.00
2023-01-28T01:38:16.830Z,0.00
2023-01-28T01:39:16.840Z,0.00
2023-01-28T01:40:16.857Z,0.00
2023-01-28T01:41:16.873Z,0.00
2023-01-28T01:42:16.889Z,0.00
2023-01-28T01:43:16.908Z,0.00
2023-01-28T01:44:16.934Z,0.00
2023-01-28T01:45:17.366Z,0.00
2023-01-28T01:46:17.050Z,0.00
2023-01-28T01:47:16.975Z,0.00
2023-01-28T01:48:16.991Z,0.00
2023-01-28T01:49:17.007Z,0.00
2023-01-28T01:50:17.026Z,0.00
2023-01-28T01:51:17.050Z,0.00
2023-01-28T01:52:17.055Z,0.00
2023-01-28T01:53:17.072Z,0.00
2023-01-28T01:54:17.095Z,0.00
2023-01-28T01:55:17.365Z,0.00
2023-01-28T01:56:17.123Z,0.00
2023-01-28T01:57:17.143Z,0.00
2023-01-28T01:58:17.164Z,0.00
2023-01-28T01:59:17.174Z,0.00
2023-01-28T02:00:17.188Z,0.00
2023-01-28T02:01:17.204Z,0.00
2023-01-28T02:02:17.282Z,0.00
2023-01-28T02:03:17.351Z,0.00
2023-01-28T02:04:17.254Z,0.00
2023-01-28T02:05:17.780Z,0.00
2023-01-28T02:06:17.290Z,0.00
2023-01-28T02:07:17.327Z,0.00
2023-01-28T02:08:17.347Z,0.00
2023-01-28T02:09:17.344Z,0.00
2023-01-28T02:10:17.358Z,0.00
2023-01-28T02:11:17.373Z,0.00
2023-01-28T02:12:17.390Z,0.00
2023-01-28T02:13:17.412Z,0.00
2023-01-28T02:14:30.720Z,0.00
2023-01-28T02:15:17.741Z,0.00
2023-01-28T02:16:17.505Z,0.00
2023-01-28T02:17:17.473Z,0.00
2023-01-28T02:18:17.499Z,0.00
2023-01-28T02:19:17.508Z,0.00
2023-01-28T02:20:17.525Z,0.00
2023-01-28T02:21:17.541Z,0.00
2023-01-28T02:22:17.556Z,0.00
2023-01-28T02:23:17.586Z,0.00
2023-01-28T02:24:17.665Z,0.00
2023-01-28T02:25:17.816Z,0.00
2023-01-28T02:26:17.622Z,0.00
2023-01-28T02:27:17.641Z,0.00
2023-01-28T02:28:17.658Z,0.00
2023-01-28T02:29:17.674Z,0.00
2023-01-28T02:30:17.693Z,0.00
2023-01-28T02:31:17.830Z,0.00
2023-01-28T02:32:17.726Z,0.00
2023-01-28T02:33:17.742Z,0.00
2023-01-28T02:34:17.758Z,0.00
2023-01-28T02:35:17.791Z,0.00
2023-01-28T02:36:17.791Z,0.00
2023-01-28T02:37:17.823Z,0.00
2023-01-28T02:38:17.837Z,0.00
2023-01-28T02:39:17.842Z,0.00
2023-01-28T02:40:17.856Z,0.00
2023-01-28T02:41:17.877Z,0.00
2023-01-28T02:42:17.893Z,0.00
2023-01-28T02:43:17.912Z,0.00
2023-01-28T02:44:17.923Z,0.00
2023-01-28T02:45:17.941Z,0.00
2023-01-28T02:46:17.987Z,0.00
2023-01-28T02:47:17.974Z,0.00
2023-01-28T02:48:17.992Z,0.00
2023-01-28T02:49:18.008Z,0.00
2023-01-28T02:50:18.039Z,0.00
2023-01-28T02:51:18.064Z,0.00
2023-01-28T02:52:18.057Z,0.00
2023-01-28T02:53:18.075Z,0.00
2023-01-28T02:54:18.091Z,0.00
2023-01-28T02:55:18.105Z,0.00
2023-01-28T02:56:18.125Z,0.00
2023-01-28T02:57:18.141Z,0.00
2023-01-28T02:58:18.183Z,0.00
2023-01-28T02:59:18.180Z,0.00
2023-01-28T03:00:18.192Z,0.00
2023-01-28T03:01:18.253Z,0.00
2023-01-28T03:02:18.336Z,0.00
2023-01-28T03:03:18.241Z,0.00
2023-01-28T03:04:18.260Z,0.00
2023-01-28T03:05:18.273Z,0.00
2023-01-28T03:06:18.290Z,0.00
2023-01-28T03:07:18.318Z,0.00
2023-01-28T03:08:18.324Z,0.00
2023-01-28T03:09:18.341Z,0.00
2023-01-28T03:10:18.362Z,0.00
2023-01-28T03:11:18.376Z,0.00
2023-01-28T03:12:18.391Z,0.00
2023-01-28T03:13:18.408Z,0.00
2023-01-28T03:14:18.426Z,0.00
2023-01-28T03:15:18.441Z,0.00
2023-01-28T03:16:18.496Z,0.00
2023-01-28T03:17:18.480Z,0.00
2023-01-28T03:18:18.491Z,0.00
2023-01-28T03:19:18.507Z,0.00
2023-01-28T03:20:18.524Z,0.00
2023-01-28T03:21:18.539Z,0.00
2023-01-28T03:22:18.560Z,0.00
2023-01-28T03:23:18.624Z,0.00
2023-01-28T03:24:18.618Z,0.00
2023-01-28T03:25:18.608Z,0.00
2023-01-28T03:26:18.625Z,0.00
2023-01-28T03:27:18.641Z,0.00
2023-01-28T03:28:18.663Z,0.00
2023-01-28T03:29:18.679Z,0.00
2023-01-28T03:30:18.689Z,0.00
2023-01-28T03:31:18.707Z,0.00
2023-01-28T03:32:18.772Z,0.00
2023-01-28T03:33:18.751Z,0.00
2023-01-28T03:34:18.756Z,0.00
2023-01-28T03:35:18.774Z,0.00
2023-01-28T03:36:18.795Z,0.00
2023-01-28T03:37:18.809Z,0.00
2023-01-28T03:38:18.825Z,0.00
2023-01-28T03:39:18.864Z,0.00
2023-01-28T03:40:18.868Z,0.00
2023-01-28T03:41:18.876Z,0.00
2023-01-28T03:42:18.905Z,0.00
2023-01-28T03:43:18.915Z,0.00
2023-01-28T03:44:18.928Z,0.00
2023-01-28T03:45:18.942Z,0.00
2023-01-28T03:46:19.029Z,0.00
2023-01-28T03:47:18.977Z,0.00
2023-01-28T03:48:18.995Z,0.00
2023-01-28T03:49:19.012Z,0.00
2023-01-28T03:50:19.029Z,0.00
2023-01-28T03:51:19.057Z,0.00
2023-01-28T03:52:19.061Z,0.00
2023-01-28T03:53:19.084Z,0.00
2023-01-28T03:54:19.099Z,0.00
2023-01-28T03:55:19.113Z,0.00
2023-01-28T03:56:19.132Z,0.00
2023-01-28T03:57:19.180Z,0.00
2023-01-28T03:58:19.178Z,0.00
2023-01-28T03:59:19.184Z,0.00
2023-01-28T04:00:19.198Z,0.00
2023-01-28T04:01:19.231Z,0.00
2023-01-28T04:02:19.232Z,0.00
2023-01-28T04:03:19.261Z,0.00
2023-01-28T04:04:19.265Z,0.00
2023-01-28T04:05:19.285Z,0.00
2023-01-28T04:06:19.308Z,0.00
2023-01-28T04:07:19.312Z,0.00
2023-01-28T04:08:19.333Z,0.00
2023-01-28T04:09:19.350Z,0.00
2023-01-28T04:10:19.366Z,0.00
2023-01-28T04:11:19.433Z,0.00
2023-01-28T04:12:19.401Z,0.00
2023-01-28T04:13:19.420Z,0.00
2023-01-28T04:14:19.438Z,0.00
2023-01-28T04:15:19.460Z,0.00
2023-01-28T04:16:19.501Z,0.00
2023-01-28T04:17:19.485Z,0.00
2023-01-28T04:18:19.502Z,0.00
2023-01-28T04:19:19.522Z,0.00
2023-01-28T04:20:19.552Z,0.00
2023-01-28T04:21:19.552Z,0.00
2023-01-28T04:22:19.570Z,0.00
2023-01-28T04:23:19.585Z,0.00
2023-01-28T04:24:19.695Z,0.00
2023-01-28T04:25:19.620Z,0.00
2023-01-28T04:26:19.639Z,0.00
2023-01-28T04:27:19.656Z,0.00
2023-01-28T04:28:19.678Z,0.00
2023-01-28T04:29:19.693Z,0.00
2023-01-28T04:30:19.704Z,0.00
2023-01-28T04:31:19.734Z,0.00
2023-01-28T04:32:19.747Z,0.00
2023-01-28T04:33:19.755Z,0.00
2023-01-28T04:34:19.777Z,0.00
2023-01-28T04:35:19.793Z,0.00
2023-01-28T04:36:19.805Z,0.00
2023-01-28T04:37:19.825Z,0.00
2023-01-28T04:38:19.839Z,0.00
2023-01-28T04:39:19.860Z,0.00
2023-01-28T04:40:19.872Z,0.00
2023-01-28T04:41:19.890Z,0.00
2023-01-28T04:42:19.907Z,0.00
2023-01-28T04:43:19.960Z,0.00
2023-01-28T04:44:19.941Z,0.00
2023-01-28T04:45:19.958Z,0.00
2023-01-28T04:46:20.050Z,0.00
2023-01-28T04:47:19.996Z,0.00
2023-01-28T04:48:20.018Z,0.00
2023-01-28T04:49:20.031Z,0.00
2023-01-28T04:50:20.036Z,0.00
2023-01-28T04:51:20.061Z,0.00
2023-01-28T04:52:20.073Z,0.00
2023-01-28T04:53:20.091Z,0.00
2023-01-28T04:54:20.107Z,0.00
2023-01-28T04:55:20.143Z,0.00
2023-01-28T04:56:20.139Z,0.00
2023-01-28T04:57:20.155Z,0.00
2023-01-28T04:58:20.171Z,0.00
2023-01-28T04:59:20.191Z,0.00
2023-01-28T05:00:20.204Z,0.00
2023-01-28T05:01:20.230Z,0.00
2023-01-28T05:02:20.281Z,0.00
2023-01-28T05:03:20.258Z,0.00
2023-01-28T05:04:20.282Z,0.00
2023-01-28T05:05:20.290Z,0.00
2023-01-28T05:06:20.312Z,0.00
2023-01-28T05:07:20.329Z,0.00
2023-01-28T05:08:20.347Z,0.00
2023-01-28T05:09:20.355Z,0.00
2023-01-28T05:10:20.379Z,0.00
2023-01-28T05:11:20.391Z,0.00
2023-01-28T05:12:20.412Z,0.00
2023-01-28T05:13:20.423Z,0.00
2023-01-28T05:14:20.444Z,0.00
2023-01-28T05:15:20.465Z,0.00
2023-01-28T05:16:20.479Z,0.00
2023-01-28T05:17:20.495Z,0.00
2023-01-28T05:18:20.506Z,0.00
2023-01-28T05:19:20.523Z,0.00
2023-01-28T05:20:20.536Z,0.00
2023-01-28T05:21:20.556Z,0.00
2023-01-28T05:22:20.580Z,0.00
2023-01-28T05:23:20.591Z,0.00
2023-01-28T05:24:20.681Z,0.00
2023-01-28T05:25:20.629Z,0.00
2023-01-28T05:26:20.643Z,0.00
2023-01-28T05:27:20.660Z,0.00
2023-01-28T05:28:20.674Z,0.00
2023-01-28T05:29:20.692Z,0.00
2023-01-28T05:30:20.710Z,0.00
2023-01-28T05:31:20.731Z,0.00
2023-01-28T05:32:20.761Z,0.00
2023-01-28T05:33:20.764Z,0.00
2023-01-28T05:34:20.778Z,0.00
2023-01-28T05:35:20.793Z,0.00
2023-01-28T05:36:20.810Z,0.00
2023-01-28T05:37:20.826Z,0.00
2023-01-28T05:38:20.850Z,0.00
2023-01-28T05:39:20.864Z,0.00
2023-01-28T05:40:20.875Z,0.00
2023-01-28T05:41:20.921Z,0.00
2023-01-28T05:42:20.914Z,0.00
2023-01-28T05:43:20.932Z,0.00
2023-01-28T05:44:20.954Z,0.00
2023-01-28T05:45:21.008Z,0.00
2023-01-28T05:46:20.980Z,0.00
2023-01-28T05:47:21.000Z,0.00
2023-01-28T05:48:21.012Z,0.00
2023-01-28T05:49:21.029Z,0.00
2023-01-28T05:50:21.055Z,0.00
2023-01-28T05:51:21.078Z,0.00
2023-01-28T05:52:21.086Z,0.00
2023-01-28T05:53:21.123Z,0.00
2023-01-28T05:54:21.139Z,0.00
2023-01-28T05:55:21.191Z,0.00
2023-01-28T05:56:21.148Z,0.00
2023-01-28T05:57:21.172Z,0.00
2023-01-28T05:58:21.180Z,0.00
2023-01-28T05:59:21.206Z,0.00
2023-01-28T06:00:21.211Z,0.00
2023-01-28T06:01:21.230Z,0.00
2023-01-28T06:02:21.300Z,0.00
2023-01-28T06:03:21.262Z,0.00
2023-01-28T06:04:21.279Z,0.00
2023-01-28T06:05:21.339Z,0.00
2023-01-28T06:06:21.314Z,0.00
2023-01-28T06:07:21.343Z,0.00
2023-01-28T06:08:21.344Z,0.00
2023-01-28T06:09:21.368Z,0.00
2023-01-28T06:10:21.378Z,0.00
2023-01-28T06:11:21.395Z,0.00
2023-01-28T06:12:21.414Z,0.00
2023-01-28T06:13:21.428Z,0.00
2023-01-28T06:14:21.448Z,0.00
2023-01-28T06:15:21.466Z,0.00
2023-01-28T06:16:21.488Z,0.00
2023-01-28T06:17:21.499Z,0.00
2023-01-28T06:18:21.603Z,0.00
2023-01-28T06:19:21.525Z,0.00
2023-01-28T06:20:21.542Z,0.00
2023-01-28T06:21:21.563Z,0.00
2023-01-28T06:22:21.576Z,0.00
2023-01-28T06:23:21.597Z,0.00
2023-01-28T06:24:21.656Z,0.00
2023-01-28T06:25:21.629Z,0.00
2023-01-28T06:26:21.639Z,0.00
2023-01-28T06:27:21.687Z,0.00
2023-01-28T06:28:21.672Z,0.00
2023-01-28T06:29:21.687Z,0.00
2023-01-28T06:30:21.708Z,0.00
2023-01-28T06:31:21.726Z,0.00
2023-01-28T06:32:21.767Z,0.00
2023-01-28T06:33:21.768Z,0.00
2023-01-28T06:34:21.772Z,0.00
2023-01-28T06:35:21.790Z,0.00
2023-01-28T06:36:21.805Z,0.00
2023-01-28T06:37:21.820Z,0.00
2023-01-28T06:38:21.838Z,0.00
2023-01-28T06:39:21.856Z,0.00
2023-01-28T06:40:21.865Z,0.00
2023-01-28T06:41:21.884Z,0.00
2023-01-28T06:42:21.903Z,0.00
2023-01-28T06:43:21.919Z,0.00
2023-01-28T06:44:21.934Z,0.00
2023-01-28T06:45:21.961Z,0.00
2023-01-28T06:46:22.005Z,0.00
2023-01-28T06:47:21.994Z,0.00
2023-01-28T06:48:22.011Z,0.00
2023-01-28T06:49:22.021Z,0.00
2023-01-28T06:50:22.036Z,0.00
2023-01-28T06:51:22.052Z,0.00
2023-01-28T06:52:22.066Z,0.00
2023-01-28T06:53:22.093Z,0.00
2023-01-28T06:54:22.101Z,0.00
2023-01-28T06:55:22.121Z,0.00
2023-01-28T06:56:22.132Z,0.00
2023-01-28T06:57:22.156Z,0.00
2023-01-28T06:58:22.167Z,0.00
2023-01-28T06:59:22.182Z,0.00
2023-01-28T07:00:22.210Z,0.00
2023-01-28T07:01:22.329Z,0.00
2023-01-28T07:02:22.231Z,0.00
2023-01-28T07:03:22.291Z,0.00
2023-01-28T07:04:22.266Z,0.00
2023-01-28T07:05:22.281Z,0.00
2023-01-28T07:06:22.297Z,0.00
2023-01-28T07:07:22.315Z,0.00
2023-01-28T07:08:22.329Z,0.00
2023-01-28T07:09:22.346Z,0.00
2023-01-28T07:10:22.365Z,0.00
2023-01-28T07:11:22.400Z,0.00
2023-01-28T07:12:22.395Z,0.00
2023-01-28T07:13:22.419Z,5.63
2023-01-28T07:14:22.430Z,5.63
2023-01-28T07:15:22.450Z,5.63
2023-01-28T07:16:22.462Z,5.63
2023-01-28T07:17:22.510Z,5.63
2023-01-28T07:18:22.496Z,5.63
2023-01-28T07:19:22.511Z,5.63
2023-01-28T07:20:22.531Z,5.63
2023-01-28T07:21:22.546Z,5.63
2023-01-28T07:22:22.562Z,5.63
2023-01-28T07:23:22.584Z,5.63
2023-01-28T07:24:22.603Z,5.63
2023-01-28T07:25:22.619Z,11.25
2023-01-28T07:26:22.628Z,11.25
2023-01-28T07:27:22.650Z,11.25
2023-01-28T07:28:22.667Z,11.25
2023-01-28T07:29:22.688Z,11.25
2023-01-28T07:30:22.698Z,11.25
2023-01-28T07:31:22.858Z,11.25
2023-01-28T07:32:22.726Z,11.25
2023-01-28T07:33:22.742Z,11.25
2023-01-28T07:34:22.760Z,11.25
2023-01-28T07:35:22.788Z,11.25
2023-01-28T07:36:22.798Z,11.25
2023-01-28T07:37:22.807Z,11.25
2023-01-28T07:38:22.829Z,16.88
2023-01-28T07:39:22.840Z,16.88
2023-01-28T07:40:22.857Z,16.88
2023-01-28T07:41:22.877Z,16.88
2023-01-28T07:42:22.891Z,22.50
2023-01-28T07:43:22.907Z,22.50
2023-01-28T07:44:22.924Z,22.50
2023-01-28T07:45:22.938Z,28.13
2023-01-28T07:46:22.955Z,28.13
2023-01-28T07:47:23.073Z,28.13
2023-01-28T07:48:22.989Z,28.13
2023-01-28T07:49:23.021Z,28.13
2023-01-28T07:50:23.023Z,33.75
2023-01-28T07:51:23.039Z,33.75
2023-01-28T07:52:23.055Z,33.75
2023-01-28T07:53:23.078Z,39.38
2023-01-28T07:54:23.092Z,39.38
2023-01-28T07:55:23.104Z,39.38
2023-01-28T07:56:23.127Z,39.38
2023-01-28T07:57:23.156Z,39.38
2023-01-28T07:58:23.157Z,45.00
2023-01-28T07:59:23.171Z,39.38
2023-01-28T08:00:23.320Z,45.00
2023-01-28T08:01:23.242Z,45.00
2023-01-28T08:02:23.222Z,50.63
2023-01-28T08:03:23.239Z,50.63
2023-01-28T08:04:23.495Z,50.63
2023-01-28T08:05:23.423Z,50.63
2023-01-28T08:06:23.312Z,50.63
2023-01-28T08:07:23.307Z,50.63
2023-01-28T08:08:23.325Z,56.25
2023-01-28T08:09:23.343Z,56.25
2023-01-28T08:10:23.356Z,56.25
2023-01-28T08:11:23.380Z,56.25
2023-01-28T08:12:23.389Z,56.25
2023-01-28T08:13:23.404Z,56.25
2023-01-28T08:14:23.424Z,56.25
2023-01-28T08:15:23.474Z,56.25
2023-01-28T08:16:23.454Z,56.25
2023-01-28T08:17:23.471Z,61.88
2023-01-28T08:18:23.490Z,61.88
2023-01-28T08:19:23.515Z,61.88
2023-01-28T08:20:23.526Z,61.88
2023-01-28T08:21:23.543Z,67.50
2023-01-28T08:22:23.557Z,67.50
2023-01-28T08:23:24.517Z,73.13
2023-01-28T08:24:23.611Z,73.13
2023-01-28T08:25:23.607Z,78.75
2023-01-28T08:26:23.631Z,78.75
2023-01-28T08:27:23.660Z,84.38
2023-01-28T08:28:23.656Z,84.38
2023-01-28T08:29:23.672Z,90.00
2023-01-28T08:30:23.699Z,95.63
2023-01-28T08:31:23.739Z,95.63
2023-01-28T08:32:23.724Z,90.00
2023-01-28T08:33:23.741Z,90.00
2023-01-28T08:34:23.767Z,90.00
2023-01-28T08:35:23.775Z,84.38
2023-01-28T08:36:23.803Z,84.38
2023-01-28T08:37:23.810Z,90.00
2023-01-28T08:38:23.837Z,90.00
2023-01-28T08:39:23.843Z,95.63
2023-01-28T08:40:23.863Z,90.00
2023-01-28T08:41:23.882Z,90.00
2023-01-28T08:42:23.900Z,90.00
2023-01-28T08:43:23.916Z,90.00
2023-01-28T08:44:23.927Z,95.63
2023-01-28T08:45:26.112Z,95.63
2023-01-28T08:46:23.961Z,95.63
2023-01-28T08:47:23.986Z,101.25
2023-01-28T08:48:24.001Z,106.88
2023-01-28T08:49:24.010Z,106.88
2023-01-28T08:50:24.028Z,101.25
2023-01-28T08:51:24.047Z,95.63
2023-01-28T08:52:24.061Z,90.00
2023-01-28T08:53:24.077Z,90.00
2023-01-28T08:54:24.097Z,90.00
2023-01-28T08:55:24.120Z,90.00
2023-01-28T08:56:24.134Z,90.00
2023-01-28T08:57:24.147Z,90.00
2023-01-28T08:58:24.165Z,84.38
2023-01-28T08:59:24.182Z,84.38
2023-01-28T09:00:24.197Z,84.38
2023-01-28T09:01:24.242Z,84.38
2023-01-28T09:02:31.559Z,84.38
2023-01-28T09:03:24.309Z,84.38
2023-01-28T09:04:24.266Z,84.38
2023-01-28T09:05:24.282Z,90.00
2023-01-28T09:06:24.300Z,84.38
2023-01-28T09:07:24.318Z,84.38
2023-01-28T09:08:25.418Z,90.00
2023-01-28T09:09:24.349Z,90.00
2023-01-28T09:10:24.477Z,90.00
2023-01-28T09:11:24.385Z,90.00
2023-01-28T09:12:24.410Z,90.00
2023-01-28T09:13:24.427Z,90.00
2023-01-28T09:14:24.438Z,90.00
2023-01-28T09:15:24.464Z,84.38
2023-01-28T09:16:24.559Z,90.00
2023-01-28T09:17:24.496Z,90.00
2023-01-28T09:18:24.508Z,95.63
2023-01-28T09:19:24.523Z,95.63
2023-01-28T09:20:24.542Z,101.25
2023-01-28T09:21:24.554Z,101.25
2023-01-28T09:22:24.574Z,106.88
2023-01-28T09:23:24.591Z,112.50
2023-01-28T09:24:24.677Z,112.50
2023-01-28T09:25:24.645Z,106.88
2023-01-28T09:26:24.640Z,106.88
2023-01-28T09:27:24.662Z,112.50
2023-01-28T09:28:24.677Z,112.50
2023-01-28T09:29:24.691Z,112.50
2023-01-28T09:30:24.836Z,112.50
2023-01-28T09:31:24.896Z,123.75
2023-01-28T09:32:24.772Z,129.38
2023-01-28T09:33:24.770Z,135.00
2023-01-28T09:34:24.783Z,129.38
2023-01-28T09:35:24.794Z,123.75
2023-01-28T09:36:24.815Z,112.50
2023-01-28T09:37:24.829Z,123.75
2023-01-28T09:38:24.846Z,123.75
2023-01-28T09:39:24.865Z,123.75
2023-01-28T09:40:24.884Z,123.75
2023-01-28T09:41:24.901Z,123.75
2023-01-28T09:42:24.917Z,123.75
2023-01-28T09:43:24.936Z,123.75
2023-01-28T09:44:24.952Z,123.75
2023-01-28T09:45:24.963Z,123.75
2023-01-28T09:46:25.001Z,123.75
2023-01-28T09:47:25.005Z,123.75
2023-01-28T09:48:25.022Z,123.75
2023-01-28T09:49:25.040Z,123.75
2023-01-28T09:50:25.056Z,123.75
2023-01-28T09:51:25.071Z,123.75
2023-01-28T09:52:25.088Z,123.75
2023-01-28T09:53:25.111Z,123.75
2023-01-28T09:54:25.129Z,123.75
2023-01-28T09:55:25.168Z,123.75
2023-01-28T09:56:25.157Z,123.75
2023-01-28T09:57:25.182Z,123.75
2023-01-28T09:58:25.194Z,135.00
2023-01-28T09:59:25.211Z,146.25
2023-01-28T10:00:25.228Z,146.25
2023-01-28T10:01:25.244Z,146.25
2023-01-28T10:02:25.259Z,140.63
2023-01-28T10:03:25.337Z,135.00
2023-01-28T10:04:25.297Z,140.63
2023-01-28T10:05:25.315Z,146.25
2023-01-28T10:06:25.327Z,151.88
2023-01-28T10:07:25.348Z,151.88
2023-01-28T10:08:25.364Z,151.88
2023-01-28T10:09:25.384Z,151.88
2023-01-28T10:10:25.399Z,151.88
2023-01-28T10:11:25.416Z,151.88
2023-01-28T10:12:25.432Z,146.25
2023-01-28T10:13:25.451Z,146.25
2023-01-28T10:14:25.468Z,146.25
2023-01-28T10:15:25.491Z,151.88
2023-01-28T10:16:25.530Z,151.88
2023-01-28T10:17:25.540Z,151.88
2023-01-28T10:18:25.538Z,151.88
2023-01-28T10:19:25.569Z,151.88
2023-01-28T10:20:25.571Z,151.88
2023-01-28T10:21:25.591Z,151.88
2023-01-28T10:22:25.608Z,157.50
2023-01-28T10:23:25.627Z,163.13
2023-01-28T10:24:26.273Z,168.75
2023-01-28T10:25:25.664Z,163.13
2023-01-28T10:26:25.678Z,151.88
2023-01-28T10:27:25.705Z,151.88
2023-01-28T10:28:25.715Z,151.88
2023-01-28T10:29:25.729Z,163.13
2023-01-28T10:30:25.754Z,168.75
2023-01-28T10:31:25.799Z,180.00
2023-01-28T10:32:25.785Z,180.00
2023-01-28T10:33:25.808Z,174.38
2023-01-28T10:34:25.821Z,168.75
2023-01-28T10:35:25.847Z,163.13
2023-01-28T10:36:25.854Z,163.13
2023-01-28T10:37:25.874Z,168.75
2023-01-28T10:38:25.894Z,157.50
2023-01-28T10:39:25.913Z,151.88
2023-01-28T10:40:25.925Z,146.25
2023-01-28T10:41:25.942Z,146.25
2023-01-28T10:42:25.966Z,140.63
2023-01-28T10:43:25.985Z,140.63
2023-01-28T10:44:25.996Z,140.63
2023-01-28T10:45:26.013Z,140.63
2023-01-28T10:46:26.031Z,151.88
2023-01-28T10:47:26.052Z,168.75
2023-01-28T10:48:26.078Z,163.13
2023-01-28T10:49:26.085Z,151.88
2023-01-28T10:50:26.105Z,151.88
2023-01-28T10:51:26.119Z,146.25
2023-01-28T10:52:26.132Z,135.00
2023-01-28T10:53:27.176Z,129.38
2023-01-28T10:54:26.177Z,123.75
2023-01-28T10:55:26.189Z,123.75
2023-01-28T10:56:26.202Z,123.75
2023-01-28T10:57:26.221Z,118.13
2023-01-28T10:58:26.240Z,123.75
2023-01-28T10:59:26.255Z,135.00
2023-01-28T11:00:26.274Z,135.00
2023-01-28T11:01:26.333Z,135.00
2023-01-28T11:02:26.381Z,129.38
2023-01-28T11:03:26.326Z,129.38
2023-01-28T11:04:26.344Z,135.00
2023-01-28T11:05:26.357Z,140.63
2023-01-28T11:06:26.400Z,135.00
2023-01-28T11:07:26.394Z,140.63
2023-01-28T11:08:26.407Z,140.63
2023-01-28T11:09:26.429Z,151.88
2023-01-28T11:10:26.443Z,157.50
2023-01-28T11:11:26.462Z,151.88
2023-01-28T11:12:26.480Z,151.88
2023-01-28T11:13:26.506Z,151.88
2023-01-28T11:14:26.511Z,168.75
2023-01-28T11:15:26.530Z,191.25
2023-01-28T11:16:26.556Z,185.63
2023-01-28T11:17:26.599Z,191.25
2023-01-28T11:18:26.581Z,185.63
2023-01-28T11:19:26.663Z,202.50
2023-01-28T11:20:26.614Z,219.38
2023-01-28T11:21:26.635Z,202.50
2023-01-28T11:22:26.648Z,219.38
2023-01-28T11:23:26.681Z,219.38
2023-01-28T11:24:26.749Z,219.38
2023-01-28T11:25:26.702Z,219.38
2023-01-28T11:26:26.720Z,196.88
2023-01-28T11:27:26.736Z,208.13
2023-01-28T11:28:26.753Z,213.75
2023-01-28T11:29:26.774Z,208.13
2023-01-28T11:30:26.789Z,213.75
2023-01-28T11:31:26.829Z,219.38
2023-01-28T11:32:26.827Z,208.13
2023-01-28T11:33:26.841Z,208.13
2023-01-28T11:34:26.857Z,180.00
2023-01-28T11:35:26.876Z,168.75
2023-01-28T11:36:26.896Z,163.13
2023-01-28T11:37:26.911Z,157.50
2023-01-28T11:38:26.929Z,157.50
2023-01-28T11:39:26.946Z,146.25
2023-01-28T11:40:26.963Z,140.63
2023-01-28T11:41:26.983Z,151.88
2023-01-28T11:42:27.007Z,163.13
2023-01-28T11:43:27.025Z,163.13
2023-01-28T11:44:27.061Z,146.25
2023-01-28T11:45:27.053Z,135.00
2023-01-28T11:46:27.072Z,129.38
2023-01-28T11:47:27.090Z,129.38
2023-01-28T11:48:27.106Z,135.00
2023-01-28T11:49:27.120Z,129.38
2023-01-28T11:50:27.150Z,129.38
2023-01-28T11:51:27.159Z,129.38
2023-01-28T11:52:27.673Z,129.38
2023-01-28T11:53:27.197Z,135.00
2023-01-28T11:54:27.209Z,135.00
2023-01-28T11:55:27.226Z,135.00
2023-01-28T11:56:27.260Z,135.00
2023-01-28T11:57:27.275Z,129.38
2023-01-28T11:58:27.292Z,135.00
2023-01-28T11:59:27.307Z,129.38
2023-01-28T12:00:27.314Z,129.38
2023-01-28T12:01:27.331Z,135.00
2023-01-28T12:02:27.419Z,135.00
2023-01-28T12:03:27.363Z,135.00
2023-01-28T12:04:27.392Z,135.00
2023-01-28T12:05:27.407Z,129.38
2023-01-28T12:06:27.435Z,129.38
2023-01-28T12:07:27.435Z,129.38
2023-01-28T12:08:27.453Z,129.38
2023-01-28T12:09:27.469Z,129.38
2023-01-28T12:10:27.492Z,123.75
2023-01-28T12:11:27.545Z,123.75
2023-01-28T12:12:27.517Z,123.75
2023-01-28T12:13:27.543Z,123.75
2023-01-28T12:14:27.577Z,123.75
2023-01-28T12:15:27.577Z,129.38
2023-01-28T12:16:27.593Z,129.38
2023-01-28T12:17:27.607Z,123.75
2023-01-28T12:18:27.626Z,123.75
2023-01-28T12:19:27.664Z,123.75
2023-01-28T12:20:27.662Z,123.75
2023-01-28T12:21:27.678Z,123.75
2023-01-28T12:22:27.695Z,118.13
2023-01-28T12:23:27.721Z,118.13
2023-01-28T12:24:27.762Z,118.13
2023-01-28T12:25:27.756Z,118.13
2023-01-28T12:26:27.765Z,118.13
2023-01-28T12:27:27.778Z,112.50
2023-01-28T12:28:27.797Z,112.50
2023-01-28T12:29:27.819Z,112.50
2023-01-28T12:30:27.839Z,112.50
2023-01-28T12:31:28.009Z,112.50
2023-01-28T12:32:27.867Z,112.50
2023-01-28T12:33:27.890Z,112.50
2023-01-28T12:34:27.902Z,112.50
2023-01-28T12:35:27.920Z,106.88
2023-01-28T12:36:27.942Z,106.88
2023-01-28T12:37:27.957Z,112.50
2023-01-28T12:38:27.976Z,112.50
2023-01-28T12:39:27.991Z,106.88
2023-01-28T12:40:28.006Z,106.88
2023-01-28T12:41:28.024Z,112.50
2023-01-28T12:42:28.045Z,112.50
2023-01-28T12:43:28.060Z,112.50
2023-01-28T12:44:28.076Z,112.50
2023-01-28T12:45:28.148Z,112.50
2023-01-28T12:46:28.115Z,118.13
2023-01-28T12:47:28.132Z,112.50
2023-01-28T12:48:28.144Z,123.75
2023-01-28T12:49:28.164Z,118.13
2023-01-28T12:50:28.187Z,106.88
2023-01-28T12:51:28.213Z,106.88
2023-01-28T12:52:28.237Z,106.88
2023-01-28T12:53:28.232Z,112.50
2023-01-28T12:54:28.255Z,118.13
2023-01-28T12:55:28.274Z,123.75
2023-01-28T12:56:28.307Z,129.38
2023-01-28T12:57:28.308Z,129.38
2023-01-28T12:58:28.320Z,129.38
2023-01-28T12:59:28.344Z,129.38